Terminal Aerodrome Forecast
Issued by NWS

Home | Current Version | Previous Version | Text Only | Print | Product List | Glossary On
Versions: 1 2 3 4 5 6 7 8 9 10 11 12 13 14
141
FTUS46 KSEW 261120
TAFHQM
TAF
KHQM 261120Z 2612/2712 28008KT P6SM SCT030 BKN040
      TEMPO 2612/2614 OVC030
     FM261400 28010KT P6SM OVC025
     FM262000 25015G25KT P6SM VCSH OVC035
     FM270400 26013G20KT P6SM OVC030
     FM270700 26010KT P6SM OVC030=

USA.gov is the U.S. government's official web portal to all federal, state and local government web resources and services.